createdAt,value
2022-08-21T00:01:35.397Z,4.00
2022-08-21T00:04:07.553Z,2.42
2022-08-21T00:06:34.843Z,6.30
2022-08-21T00:09:06.248Z,3.47
2022-08-21T00:11:34.337Z,5.25
2022-08-21T00:14:00.997Z,4.80
2022-08-21T00:16:27.779Z,3.75
2022-08-21T00:18:54.417Z,4.35
2022-08-21T00:21:21.071Z,5.63
2022-08-21T00:23:47.760Z,3.25
2022-08-21T00:26:14.423Z,3.95
2022-08-21T00:28:41.133Z,5.78
2022-08-21T00:31:07.851Z,5.65
2022-08-21T00:33:34.787Z,5.97
2022-08-21T00:36:01.796Z,6.13
2022-08-21T00:38:28.423Z,6.65
2022-08-21T00:40:59.628Z,6.15
2022-08-21T00:43:31.993Z,6.85
2022-08-21T00:45:59.957Z,6.53
2022-08-21T00:48:27.707Z,6.22
2022-08-21T00:51:11.515Z,8.05
2022-08-21T00:53:40.798Z,4.70
2022-08-21T00:56:08.570Z,2.80
2022-08-21T00:58:39.191Z,5.38
2022-08-21T01:01:08.920Z,4.72
2022-08-21T01:03:36.600Z,3.85
2022-08-21T01:06:05.302Z,8.27
2022-08-21T01:08:33.225Z,5.18
2022-08-21T01:11:00.867Z,5.97
2022-08-21T01:13:31.640Z,5.40
2022-08-21T01:16:00.471Z,7.00
2022-08-21T01:18:28.299Z,5.97
2022-08-21T01:21:19.640Z,6.07
2022-08-21T01:23:49.376Z,4.97
2022-08-21T01:26:18.472Z,6.05
2022-08-21T01:28:49.770Z,4.30
2022-08-21T01:31:18.954Z,5.47
2022-08-21T01:33:53.254Z,3.72
2022-08-21T01:36:20.063Z,6.82
2022-08-21T01:38:48.204Z,7.32
2022-08-21T01:41:15.821Z,6.18
2022-08-21T01:43:43.611Z,5.77
2022-08-21T01:46:10.959Z,5.90
2022-08-21T01:48:38.004Z,5.72
2022-08-21T01:51:05.769Z,12.73
2022-08-21T01:53:34.980Z,10.75
2022-08-21T01:56:01.781Z,7.43
2022-08-21T01:58:28.502Z,7.85
2022-08-21T02:00:55.493Z,6.18
2022-08-21T02:03:26.353Z,8.00
2022-08-21T02:06:02.237Z,10.07
2022-08-21T02:08:29.941Z,5.57
2022-08-21T02:10:56.549Z,6.43
2022-08-21T02:13:23.188Z,6.93
2022-08-21T02:15:49.866Z,6.90
2022-08-21T02:18:16.722Z,4.78
2022-08-21T02:20:48.307Z,6.50
2022-08-21T02:23:15.627Z,6.07
2022-08-21T02:25:42.652Z,6.35
2022-08-21T02:28:11.813Z,4.60
2022-08-21T02:30:46.207Z,8.30
2022-08-21T02:33:13.136Z,7.97
2022-08-21T02:35:43.018Z,5.70
2022-08-21T02:38:13.522Z,10.65
2022-08-21T02:40:43.882Z,12.10
2022-08-21T02:43:16.414Z,7.50
2022-08-21T02:45:44.652Z,9.82
2022-08-21T02:48:14.326Z,5.25
2022-08-21T02:50:57.443Z,5.47
2022-08-21T02:53:24.345Z,9.02
2022-08-21T02:55:52.599Z,9.73
2022-08-21T02:58:23.384Z,6.78
2022-08-21T03:00:50.889Z,8.38
2022-08-21T03:03:17.665Z,9.13
2022-08-21T03:05:45.093Z,6.57
2022-08-21T03:08:13.978Z,5.47
2022-08-21T03:10:44.952Z,5.25
2022-08-21T03:13:12.256Z,8.23
2022-08-21T03:15:39.495Z,10.95
2022-08-21T03:18:06.723Z,6.60
2022-08-21T03:20:34.458Z,5.82
2022-08-21T03:23:02.284Z,7.88
2022-08-21T03:25:40.502Z,10.50
2022-08-21T03:28:12.802Z,7.50
2022-08-21T03:30:41.175Z,6.10
2022-08-21T03:33:07.799Z,4.03
2022-08-21T03:35:34.479Z,5.68
2022-08-21T03:38:01.108Z,6.88
2022-08-21T03:40:27.845Z,11.02
2022-08-21T03:42:54.584Z,5.95
2022-08-21T03:45:22.265Z,10.15
2022-08-21T03:48:00.412Z,6.13
2022-08-21T03:50:30.576Z,6.05
2022-08-21T03:52:57.722Z,6.32
2022-08-21T03:55:25.285Z,11.57
2022-08-21T03:57:52.498Z,7.45
2022-08-21T04:00:20.532Z,7.60
2022-08-21T04:02:47.534Z,9.52
2022-08-21T04:05:15.297Z,8.02
2022-08-21T04:07:41.893Z,10.68
2022-08-21T04:10:09.052Z,9.13
2022-08-21T04:12:35.785Z,8.27
2022-08-21T04:15:03.023Z,7.63
2022-08-21T04:17:29.672Z,7.93
2022-08-21T04:19:57.528Z,8.05
2022-08-21T04:22:24.160Z,7.53
2022-08-21T04:24:50.853Z,7.35
2022-08-21T04:27:17.470Z,9.65
2022-08-21T04:29:44.127Z,9.50
2022-08-21T04:32:10.757Z,7.75
2022-08-21T04:34:37.442Z,9.82
2022-08-21T04:37:04.814Z,8.27
2022-08-21T04:39:31.411Z,7.63
2022-08-21T04:41:58.044Z,10.15
2022-08-21T04:44:24.664Z,10.60
2022-08-21T04:46:51.266Z,11.00
2022-08-21T04:49:18.379Z,9.10
2022-08-21T04:51:45.845Z,9.82
2022-08-21T04:54:16.734Z,7.13
2022-08-21T04:56:47.923Z,7.57
2022-08-21T04:59:17.602Z,10.63
2022-08-21T05:01:44.985Z,9.98
2022-08-21T05:04:14.431Z,14.05
2022-08-21T05:06:43.094Z,8.20
2022-08-21T05:09:14.230Z,7.25
2022-08-21T05:11:41.467Z,8.73
2022-08-21T05:14:08.039Z,9.77
2022-08-21T05:16:37.355Z,7.80
2022-08-21T05:19:08.191Z,8.88
2022-08-21T05:21:44.407Z,9.73
2022-08-21T05:24:11.479Z,9.98
2022-08-21T05:26:46.164Z,8.15
2022-08-21T05:29:15.244Z,8.43
2022-08-21T05:31:43.036Z,10.57
2022-08-21T05:34:09.659Z,10.73
2022-08-21T05:36:37.149Z,8.05
2022-08-21T05:39:04.302Z,8.65
2022-08-21T05:41:31.019Z,7.85
2022-08-21T05:44:00.869Z,7.57
2022-08-21T05:46:27.609Z,10.02
2022-08-21T05:48:54.235Z,8.95
2022-08-21T05:51:21.044Z,11.10
2022-08-21T05:53:47.755Z,10.77
2022-08-21T05:56:15.071Z,10.57
2022-08-21T05:58:42.367Z,8.00
2022-08-21T06:01:10.065Z,9.13
2022-08-21T06:03:39.880Z,10.57
2022-08-21T06:06:06.624Z,10.73
2022-08-21T06:08:33.479Z,10.27
2022-08-21T06:11:02.047Z,11.90
2022-08-21T06:16:15.680Z,12.68
2022-08-21T06:18:44.315Z,11.57
2022-08-21T06:21:12.422Z,11.63
2022-08-21T06:23:39.132Z,9.40
2022-08-21T06:26:06.929Z,9.63
2022-08-21T06:28:34.007Z,12.48
2022-08-21T06:31:00.678Z,13.55
2022-08-21T06:33:32.318Z,12.60
2022-08-21T06:35:59.361Z,13.68
2022-08-21T06:38:25.951Z,15.02
2022-08-21T06:40:53.248Z,16.17
2022-08-21T06:43:19.926Z,12.20
2022-08-21T06:45:46.827Z,12.05
2022-08-21T06:48:17.050Z,11.13
2022-08-21T06:50:46.091Z,17.38
2022-08-21T06:53:14.856Z,12.75
2022-08-21T06:55:41.666Z,12.20
2022-08-21T06:58:08.372Z,14.35
2022-08-21T07:00:36.332Z,13.70
2022-08-21T07:03:03.215Z,16.75
2022-08-21T07:05:30.929Z,13.75
2022-08-21T07:07:58.178Z,12.52
2022-08-21T07:10:26.125Z,11.40
2022-08-21T07:13:00.256Z,11.07
2022-08-21T07:15:29.277Z,13.40
2022-08-21T07:17:58.175Z,10.13
2022-08-21T07:20:24.890Z,11.60
2022-08-21T07:22:51.859Z,12.05
2022-08-21T07:25:18.702Z,12.15
2022-08-21T07:27:45.383Z,11.68
2022-08-21T07:30:12.254Z,16.13
2022-08-21T07:32:39.037Z,14.40
2022-08-21T07:35:06.137Z,11.52
2022-08-21T07:37:32.707Z,15.40
2022-08-21T07:39:59.423Z,8.18
2022-08-21T07:42:26.130Z,9.98
2022-08-21T07:44:56.460Z,8.85
2022-08-21T07:47:41.463Z,8.73
2022-08-21T07:50:12.281Z,6.68
2022-08-21T07:52:39.537Z,10.88
2022-08-21T07:55:07.083Z,10.13
2022-08-21T07:57:34.108Z,7.93
2022-08-21T08:00:00.782Z,11.18
2022-08-21T08:02:30.303Z,8.38
2022-08-21T08:05:02.302Z,7.85
2022-08-21T08:07:29.168Z,12.80
2022-08-21T08:09:55.928Z,12.60
2022-08-21T08:12:22.594Z,9.48
2022-08-21T08:14:49.249Z,6.45
2022-08-21T08:17:15.903Z,11.13
2022-08-21T08:19:42.471Z,7.47
2022-08-21T08:22:20.826Z,7.80
2022-08-21T08:27:14.705Z,9.07
2022-08-21T08:29:41.300Z,9.27
2022-08-21T08:32:11.000Z,17.33
2022-08-21T08:34:39.720Z,11.25
2022-08-21T08:37:08.641Z,8.68
2022-08-21T08:39:35.346Z,13.40
2022-08-21T08:42:33.350Z,11.23
2022-08-21T08:45:10.532Z,10.07
2022-08-21T08:47:39.828Z,10.38
2022-08-21T08:50:14.780Z,6.28
2022-08-21T08:52:46.092Z,7.82
2022-08-21T08:55:17.268Z,6.60
2022-08-21T08:57:46.671Z,4.53
2022-08-21T09:00:20.561Z,6.57
2022-08-21T09:02:47.959Z,7.32
2022-08-21T09:05:48.456Z,9.98
2022-08-21T09:08:30.082Z,6.82
2022-08-21T09:11:14.407Z,10.40
2022-08-21T09:13:50.291Z,7.88
2022-08-21T09:16:36.254Z,10.30
2022-08-21T09:19:29.048Z,8.20
2022-08-21T09:22:16.780Z,10.73
2022-08-21T09:25:08.853Z,5.38
2022-08-21T09:27:37.310Z,9.13
2022-08-21T09:32:37.751Z,9.40
2022-08-21T09:35:08.133Z,10.60
2022-08-21T09:37:46.005Z,7.10
2022-08-21T09:40:46.396Z,8.73
2022-08-21T09:43:12.993Z,8.07
2022-08-21T09:45:42.873Z,9.07
2022-08-21T09:48:21.737Z,8.02
2022-08-21T09:50:50.056Z,8.07
2022-08-21T09:53:19.791Z,11.40
2022-08-21T09:56:10.996Z,8.82
2022-08-21T09:58:39.940Z,7.00
2022-08-21T10:01:08.369Z,9.57
2022-08-21T10:06:09.674Z,5.40
2022-08-21T10:08:38.923Z,6.72
2022-08-21T10:11:11.782Z,8.20
2022-08-21T10:13:38.397Z,9.50
2022-08-21T10:16:21.958Z,9.07
2022-08-21T10:19:19.507Z,8.20
2022-08-21T10:21:46.146Z,11.43
2022-08-21T10:24:33.590Z,11.07
2022-08-21T10:27:14.078Z,14.05
2022-08-21T10:29:49.012Z,9.82
2022-08-21T10:32:30.641Z,8.38
2022-08-21T10:34:57.216Z,8.95
2022-08-21T10:37:35.520Z,6.32
2022-08-21T10:42:44.644Z,5.18
2022-08-21T10:45:29.569Z,6.18
2022-08-21T10:48:01.951Z,7.05
2022-08-21T10:50:43.121Z,7.35
2022-08-21T10:53:13.484Z,6.47
2022-08-21T10:56:08.341Z,7.32
2022-08-21T10:58:39.072Z,7.47
2022-08-21T11:01:12.677Z,8.82
2022-08-21T11:03:48.028Z,5.50
2022-08-21T11:06:22.983Z,8.70
2022-08-21T11:08:58.395Z,6.60
2022-08-21T11:11:29.436Z,5.07
2022-08-21T11:14:33.972Z,9.45
2022-08-21T11:17:09.093Z,8.60
2022-08-21T11:22:36.139Z,8.45
2022-08-21T11:25:12.380Z,7.40
2022-08-21T11:27:50.776Z,11.23
2022-08-21T11:30:17.916Z,8.18
2022-08-21T11:32:57.670Z,7.25
2022-08-21T11:35:36.256Z,7.88
2022-08-21T11:38:40.363Z,7.65
2022-08-21T11:41:25.715Z,11.30
2022-08-21T11:44:20.001Z,12.43
2022-08-21T11:47:01.590Z,7.30
2022-08-21T11:49:51.712Z,8.57
2022-08-21T11:52:33.031Z,7.32
2022-08-21T11:55:23.699Z,8.45
2022-08-21T11:57:50.452Z,6.38
2022-08-21T12:00:25.119Z,10.43
2022-08-21T12:02:54.895Z,5.93
2022-08-21T12:05:36.078Z,6.78
2022-08-21T12:08:07.735Z,6.43
2022-08-21T12:10:41.428Z,7.13
2022-08-21T12:13:12.381Z,6.68
2022-08-21T12:15:39.211Z,5.32
2022-08-21T12:18:19.676Z,9.25
2022-08-21T12:20:58.290Z,8.90
2022-08-21T12:23:32.572Z,8.98
2022-08-21T12:26:36.195Z,7.15
2022-08-21T12:29:12.276Z,4.78
2022-08-21T12:32:03.285Z,10.93
2022-08-21T12:34:39.324Z,7.90
2022-08-21T12:37:16.585Z,7.40
2022-08-21T12:39:46.326Z,8.68
2022-08-21T12:42:18.832Z,9.82
2022-08-21T12:44:52.014Z,10.15
2022-08-21T12:48:06.030Z,8.45
2022-08-21T12:50:47.598Z,6.80
2022-08-21T12:53:20.873Z,9.68
2022-08-21T12:55:48.175Z,6.72
2022-08-21T12:58:23.081Z,8.40
2022-08-21T13:01:01.039Z,5.03
2022-08-21T13:03:28.685Z,8.65
2022-08-21T13:05:55.482Z,5.75
2022-08-21T13:08:24.376Z,7.38
2022-08-21T13:10:59.473Z,6.30
2022-08-21T13:13:36.596Z,6.05
2022-08-21T13:16:11.447Z,7.72
2022-08-21T13:18:54.196Z,7.93
2022-08-21T13:21:22.107Z,10.57
2022-08-21T13:23:49.189Z,7.75
2022-08-21T13:26:25.280Z,6.45
2022-08-21T13:28:51.985Z,8.15
2022-08-21T13:31:27.289Z,8.23
2022-08-21T13:33:55.677Z,6.80
2022-08-21T13:38:54.489Z,4.80
2022-08-21T13:41:31.800Z,6.15
2022-08-21T13:44:01.778Z,5.57
2022-08-21T13:46:31.300Z,4.75
2022-08-21T13:49:00.342Z,6.35
2022-08-21T13:51:27.572Z,4.82
2022-08-21T13:53:56.639Z,6.53
2022-08-21T13:56:35.103Z,6.13
2022-08-21T13:59:03.869Z,5.75
2022-08-21T14:01:35.343Z,5.13
2022-08-21T14:04:17.865Z,4.38
2022-08-21T14:06:44.556Z,3.83
2022-08-21T14:09:33.824Z,5.68
2022-08-21T14:12:05.993Z,4.03
2022-08-21T14:14:36.273Z,2.83
2022-08-21T14:17:11.265Z,2.97
2022-08-21T14:19:51.840Z,5.43
2022-08-21T14:22:39.726Z,2.22
2022-08-21T14:25:08.120Z,4.65
2022-08-21T14:30:10.823Z,6.22
2022-08-21T14:32:45.947Z,3.42
2022-08-21T14:35:13.333Z,3.22
2022-08-21T14:37:43.564Z,3.97
2022-08-21T14:40:11.059Z,3.08
2022-08-21T14:42:38.285Z,1.93
2022-08-21T14:45:24.419Z,2.40
2022-08-21T14:47:54.104Z,3.05
2022-08-21T14:50:20.830Z,2.63
2022-08-21T14:52:47.462Z,4.80
2022-08-21T14:55:15.312Z,4.00
2022-08-21T14:57:53.106Z,3.90
2022-08-21T15:00:27.155Z,5.70
2022-08-21T15:03:03.265Z,2.90
2022-08-21T15:05:33.664Z,3.63
2022-08-21T15:08:00.804Z,3.22
2022-08-21T15:10:27.396Z,4.22
2022-08-21T15:12:54.101Z,4.20
2022-08-21T15:15:20.726Z,2.63
2022-08-21T15:17:48.565Z,2.65
2022-08-21T15:20:15.803Z,5.05
2022-08-21T15:22:47.514Z,3.60
2022-08-21T15:25:22.644Z,3.90
2022-08-21T15:27:49.374Z,3.33
2022-08-21T15:30:16.189Z,4.10
2022-08-21T15:32:42.917Z,4.82
2022-08-21T15:35:10.366Z,4.97
2022-08-21T15:37:37.016Z,2.93
2022-08-21T15:40:06.097Z,6.75
2022-08-21T15:42:32.886Z,4.13
2022-08-21T15:44:59.649Z,3.92
2022-08-21T15:47:31.258Z,7.32
2022-08-21T15:49:57.993Z,3.88
2022-08-21T15:52:24.616Z,3.70
2022-08-21T15:54:51.437Z,4.55
2022-08-21T15:57:20.726Z,3.70
2022-08-21T15:59:50.620Z,5.43
2022-08-21T16:02:27.639Z,3.67
2022-08-21T16:04:54.578Z,2.60
2022-08-21T16:07:21.422Z,3.97
2022-08-21T16:09:48.079Z,6.03
2022-08-21T16:12:23.006Z,3.67
2022-08-21T16:14:50.839Z,2.53
2022-08-21T16:17:17.423Z,5.97
2022-08-21T16:19:44.016Z,4.47
2022-08-21T16:22:10.777Z,3.85
2022-08-21T16:24:37.457Z,2.17
2022-08-21T16:27:07.984Z,6.10
2022-08-21T16:29:36.760Z,4.38
2022-08-21T16:34:30.230Z,4.95
2022-08-21T16:36:56.931Z,2.65
2022-08-21T16:39:23.590Z,3.35
2022-08-21T16:41:51.872Z,3.42
2022-08-21T16:44:22.966Z,5.57
2022-08-21T16:46:50.284Z,2.80
2022-08-21T16:49:17.248Z,2.92
2022-08-21T16:51:43.949Z,3.05
2022-08-21T16:54:11.326Z,5.13
2022-08-21T16:56:40.032Z,4.15
2022-08-21T16:59:07.254Z,3.55
2022-08-21T17:01:34.569Z,4.75
2022-08-21T17:04:01.287Z,4.18
2022-08-21T17:06:28.988Z,2.53
2022-08-21T17:08:56.291Z,4.47
2022-08-21T17:11:37.043Z,2.15
2022-08-21T17:14:08.133Z,2.70
2022-08-21T17:16:35.191Z,3.25
2022-08-21T17:19:01.788Z,3.47
2022-08-21T17:21:28.435Z,3.00
2022-08-21T17:23:55.647Z,3.17
2022-08-21T17:26:23.396Z,4.50
2022-08-21T17:28:54.227Z,2.42
2022-08-21T17:31:21.426Z,3.13
2022-08-21T17:33:52.179Z,5.10
2022-08-21T17:36:24.407Z,4.57
2022-08-21T17:38:51.547Z,2.15
2022-08-21T17:41:20.338Z,3.25
2022-08-21T17:43:47.426Z,2.67
2022-08-21T17:46:19.120Z,2.78
2022-08-21T17:48:47.370Z,2.83
2022-08-21T17:53:41.881Z,3.50
2022-08-21T17:56:08.932Z,1.88
2022-08-21T17:58:36.252Z,2.47
2022-08-21T18:01:05.745Z,2.70
2022-08-21T18:03:37.145Z,2.45
2022-08-21T18:06:05.524Z,3.15
2022-08-21T18:08:32.733Z,4.18
2022-08-21T18:10:59.629Z,2.47
2022-08-21T18:13:29.839Z,3.90
2022-08-21T18:15:58.270Z,3.55
2022-08-21T18:20:53.177Z,3.08
2022-08-21T18:23:19.881Z,2.97
2022-08-21T18:25:59.667Z,3.83
2022-08-21T18:28:26.683Z,2.88
2022-08-21T18:30:54.355Z,2.45
2022-08-21T18:33:22.315Z,3.65
2022-08-21T18:35:49.492Z,4.20
2022-08-21T18:38:19.604Z,3.33
2022-08-21T18:40:55.165Z,3.20
2022-08-21T18:43:23.234Z,3.53
2022-08-21T18:45:49.856Z,2.65
2022-08-21T18:48:17.765Z,5.35
2022-08-21T18:50:47.902Z,3.60
2022-08-21T18:56:04.853Z,2.72
2022-08-21T18:58:33.036Z,4.95
2022-08-21T19:00:59.775Z,4.20
2022-08-21T19:03:26.427Z,5.25
2022-08-21T19:05:54.141Z,2.08
2022-08-21T19:08:23.356Z,4.35
2022-08-21T19:10:52.102Z,3.88
2022-08-21T19:13:20.857Z,3.33
2022-08-21T19:15:50.233Z,3.55
2022-08-21T19:18:19.414Z,4.72
2022-08-21T19:20:48.014Z,6.55
2022-08-21T19:23:16.451Z,3.92
2022-08-21T19:25:45.663Z,5.78
2022-08-21T19:28:22.763Z,6.22
2022-08-21T19:30:56.727Z,4.10
2022-08-21T19:33:33.668Z,4.63
2022-08-21T19:36:00.578Z,4.45
2022-08-21T19:38:27.574Z,2.78
2022-08-21T19:40:55.766Z,2.72
2022-08-21T19:46:09.932Z,3.17
2022-08-21T19:48:37.653Z,3.42
2022-08-21T19:51:07.495Z,3.47
2022-08-21T19:53:34.861Z,3.88
2022-08-21T19:56:01.534Z,6.30
2022-08-21T19:58:39.821Z,3.00
2022-08-21T20:01:11.305Z,5.45
2022-08-21T20:03:43.268Z,5.40
2022-08-21T20:06:10.146Z,3.70
2022-08-21T20:08:37.005Z,6.47
2022-08-21T20:11:04.507Z,3.92
2022-08-21T20:13:33.825Z,3.90
2022-08-21T20:16:03.159Z,2.88
2022-08-21T20:18:31.013Z,3.78
2022-08-21T20:20:57.879Z,2.55
2022-08-21T20:26:11.998Z,3.03
2022-08-21T20:28:39.739Z,3.60
2022-08-21T20:31:06.504Z,6.32
2022-08-21T20:33:37.235Z,4.78
2022-08-21T20:36:04.835Z,5.60
2022-08-21T20:38:31.834Z,7.10
2022-08-21T20:40:58.604Z,6.60
2022-08-21T20:43:27.007Z,2.40
2022-08-21T20:45:54.907Z,5.82
2022-08-21T20:48:29.621Z,3.03
2022-08-21T20:51:07.256Z,3.15
2022-08-21T20:53:48.884Z,3.53
2022-08-21T20:56:41.052Z,6.10
2022-08-21T20:59:16.613Z,4.05
2022-08-21T21:01:47.128Z,3.08
2022-08-21T21:04:25.817Z,5.07
2022-08-21T21:06:58.841Z,2.50
2022-08-21T21:09:41.044Z,5.55
2022-08-21T21:12:12.815Z,6.68
2022-08-21T21:14:45.034Z,5.15
2022-08-21T21:20:19.411Z,5.63
2022-08-21T21:22:53.625Z,7.03
2022-08-21T21:25:40.739Z,7.45
2022-08-21T21:28:15.504Z,4.57
2022-08-21T21:30:46.679Z,4.07
2022-08-21T21:33:16.682Z,5.43
2022-08-21T21:35:50.795Z,5.82
2022-08-21T21:38:23.672Z,7.22
2022-08-21T21:41:35.720Z,7.75
2022-08-21T21:44:08.670Z,4.90
2022-08-21T21:47:02.773Z,7.45
2022-08-21T21:49:40.307Z,6.55
2022-08-21T21:52:17.233Z,6.28
2022-08-21T21:58:18.880Z,6.95
2022-08-21T22:00:56.436Z,9.55
2022-08-21T22:03:29.955Z,6.45
2022-08-21T22:06:09.621Z,7.55
2022-08-21T22:08:53.760Z,5.70
2022-08-21T22:11:31.817Z,7.38
2022-08-21T22:14:11.381Z,7.03
2022-08-21T22:16:38.522Z,5.57
2022-08-21T22:19:25.283Z,5.55
2022-08-21T22:22:19.298Z,5.35
2022-08-21T22:24:49.042Z,6.80
2022-08-21T22:27:21.909Z,4.10
2022-08-21T22:29:57.249Z,5.57
2022-08-21T22:32:46.410Z,7.25
2022-08-21T22:35:26.134Z,6.45
2022-08-21T22:40:46.353Z,6.07
2022-08-21T22:43:20.655Z,6.60
2022-08-21T22:45:58.711Z,4.75
2022-08-21T22:48:46.487Z,7.90
2022-08-21T22:51:32.413Z,7.13
2022-08-21T22:54:00.237Z,7.30
2022-08-21T22:56:39.332Z,5.03
2022-08-21T22:59:30.525Z,7.80
2022-08-21T23:02:03.770Z,8.57
2022-08-21T23:04:31.712Z,8.20
2022-08-21T23:07:02.887Z,7.32
2022-08-21T23:09:38.833Z,7.10
2022-08-21T23:12:23.636Z,7.72
2022-08-21T23:15:00.440Z,5.57
2022-08-21T23:17:40.139Z,5.32
2022-08-21T23:20:10.313Z,5.38
2022-08-21T23:22:59.250Z,6.45
2022-08-21T23:25:38.274Z,7.13
2022-08-21T23:28:16.860Z,7.63
2022-08-21T23:31:05.009Z,7.40
2022-08-21T23:34:01.039Z,7.47
2022-08-21T23:37:18.673Z,8.75
2022-08-21T23:39:55.846Z,7.80
2022-08-21T23:42:45.720Z,8.00
2022-08-21T23:45:36.357Z,5.20
2022-08-21T23:48:29.551Z,6.07
2022-08-21T23:51:12.086Z,8.75
2022-08-21T23:54:16.161Z,9.32
2022-08-21T23:57:08.933Z,7.28
2022-08-21T23:59:56.627Z,12.07
